createdAt,value
2018-08-28T00:00:41.755Z,18.4
2018-08-28T00:01:41.783Z,18.44
2018-08-28T00:02:41.714Z,18.44
2018-08-28T00:03:41.672Z,18.44
2018-08-28T00:04:41.778Z,18.46
2018-08-28T00:05:41.670Z,18.49
2018-08-28T00:06:41.719Z,18.49
2018-08-28T00:07:41.723Z,18.49
2018-08-28T00:08:41.759Z,18.49
2018-08-28T00:09:41.738Z,18.5
2018-08-28T00:10:41.669Z,18.5
2018-08-28T00:11:41.778Z,18.52
2018-08-28T00:12:41.685Z,18.52
2018-08-28T00:13:41.700Z,18.53
2018-08-28T00:14:41.688Z,18.53
2018-08-28T00:15:41.693Z,18.52
2018-08-28T00:16:41.710Z,18.49
2018-08-28T00:17:41.745Z,18.52
2018-08-28T00:18:41.698Z,18.47
2018-08-28T00:19:41.696Z,18.43
2018-08-28T00:20:41.914Z,18.42
2018-08-28T00:21:41.679Z,18.37
2018-08-28T00:22:41.710Z,18.35
2018-08-28T00:23:41.698Z,18.36
2018-08-28T00:24:41.792Z,18.36
2018-08-28T00:25:41.689Z,18.35
2018-08-28T00:26:41.733Z,18.3
2018-08-28T00:27:41.746Z,18.3
2018-08-28T00:28:41.719Z,18.23
2018-08-28T00:29:41.788Z,18.23
2018-08-28T00:30:41.913Z,18.25
2018-08-28T00:31:41.712Z,18.22
2018-08-28T00:32:41.718Z,18.17
2018-08-28T00:33:41.736Z,18.17
2018-08-28T00:34:41.720Z,18.17
2018-08-28T00:35:41.876Z,18.17
2018-08-28T00:36:41.808Z,18.16
2018-08-28T00:37:41.714Z,18.17
2018-08-28T00:38:41.740Z,18.17
2018-08-28T00:39:41.726Z,18.16
2018-08-28T00:40:41.779Z,18.12
2018-08-28T00:41:41.808Z,18.11
2018-08-28T00:42:41.776Z,18.11
2018-08-28T00:43:42.061Z,18.11
2018-08-28T00:44:41.861Z,18.12
2018-08-28T00:45:41.785Z,18.13
2018-08-28T00:46:41.741Z,18.11
2018-08-28T00:47:42.002Z,18.13
2018-08-28T00:48:41.785Z,18.12
2018-08-28T00:49:42.019Z,18.11
2018-08-28T00:50:41.911Z,18.09
2018-08-28T00:51:41.730Z,18.09
2018-08-28T00:52:41.769Z,18.11
2018-08-28T00:53:41.930Z,18.09
2018-08-28T00:54:41.756Z,18.08
2018-08-28T00:55:41.749Z,18.05
2018-08-28T00:56:41.768Z,18.05
2018-08-28T00:57:41.797Z,17.92
2018-08-28T00:58:41.735Z,17.97
2018-08-28T00:59:41.734Z,17.78
2018-08-28T01:00:41.883Z,17.8
2018-08-28T01:01:41.886Z,17.82
2018-08-28T01:02:42.278Z,17.81
2018-08-28T01:03:41.757Z,17.85
2018-08-28T01:04:41.761Z,17.84
2018-08-28T01:05:42.024Z,17.85
2018-08-28T01:06:41.781Z,17.85
2018-08-28T01:07:42.466Z,17.81
2018-08-28T01:08:41.773Z,17.82
2018-08-28T01:09:41.765Z,17.82
2018-08-28T01:10:42.072Z,17.84
2018-08-28T01:11:41.759Z,17.85
2018-08-28T01:12:42.001Z,17.87
2018-08-28T01:13:41.847Z,17.85
2018-08-28T01:14:42.283Z,17.84
2018-08-28T01:15:41.766Z,17.85
2018-08-28T01:16:41.746Z,17.84
2018-08-28T01:17:41.756Z,17.85
2018-08-28T01:18:41.788Z,17.84
2018-08-28T01:19:41.814Z,17.84
2018-08-28T01:20:41.782Z,17.82
2018-08-28T01:21:41.768Z,17.84
2018-08-28T01:22:41.784Z,17.81
2018-08-28T01:23:41.781Z,17.81
2018-08-28T01:24:41.799Z,17.84
2018-08-28T01:25:41.772Z,17.82
2018-08-28T01:26:41.773Z,17.82
2018-08-28T01:27:41.761Z,17.84
2018-08-28T01:28:41.789Z,17.82
2018-08-28T01:29:41.817Z,17.82
2018-08-28T01:30:41.870Z,17.81
2018-08-28T01:31:41.778Z,17.81
2018-08-28T01:32:41.837Z,17.81
2018-08-28T01:33:41.831Z,17.8
2018-08-28T01:34:41.784Z,17.76
2018-08-28T01:35:41.805Z,17.76
2018-08-28T01:36:41.795Z,17.74
2018-08-28T01:37:41.784Z,17.77
2018-08-28T01:38:41.851Z,17.77
2018-08-28T01:39:41.800Z,17.76
2018-08-28T01:40:41.795Z,17.74
2018-08-28T01:41:41.770Z,17.74
2018-08-28T01:42:41.787Z,17.7
2018-08-28T01:43:41.793Z,17.57
2018-08-28T01:44:42.129Z,17.6
2018-08-28T01:45:41.871Z,17.61
2018-08-28T01:46:41.933Z,17.58
2018-08-28T01:47:41.802Z,17.47
2018-08-28T01:48:41.895Z,17.12
2018-08-28T01:49:41.868Z,17.16
2018-08-28T01:50:42.008Z,17.22
2018-08-28T01:51:41.820Z,17.22
2018-08-28T01:52:42.029Z,17.19
2018-08-28T01:53:41.975Z,17.21
2018-08-28T01:54:42.000Z,17.22
2018-08-28T01:55:41.802Z,17.25
2018-08-28T01:56:41.850Z,17.29
2018-08-28T01:57:41.954Z,17.29
2018-08-28T01:58:41.960Z,17.3
2018-08-28T01:59:41.984Z,17.32
2018-08-28T02:00:41.974Z,17.33
2018-08-28T02:01:41.815Z,17.32
2018-08-28T02:02:42.001Z,17.29
2018-08-28T02:03:41.827Z,17.25
2018-08-28T02:04:41.889Z,17.23
2018-08-28T02:05:41.814Z,17.25
2018-08-28T02:06:41.969Z,17.22
2018-08-28T02:07:42.146Z,17.27
2018-08-28T02:08:42.048Z,17.23
2018-08-28T02:09:41.874Z,17.19
2018-08-28T02:10:42.032Z,17.19
2018-08-28T02:11:42.002Z,17.18
2018-08-28T02:12:41.975Z,17.16
2018-08-28T02:13:42.205Z,17.19
2018-08-28T02:14:41.979Z,17.19
2018-08-28T02:15:41.909Z,17.16
2018-08-28T02:16:41.948Z,17.16
2018-08-28T02:17:41.991Z,17.18
2018-08-28T02:18:42.079Z,17.15
2018-08-28T02:19:42.116Z,17.14
2018-08-28T02:20:42.065Z,17.14
2018-08-28T02:21:41.849Z,17.12
2018-08-28T02:22:41.996Z,17.15
2018-08-28T02:23:41.993Z,17.15
2018-08-28T02:24:41.841Z,17.16
2018-08-28T02:25:41.856Z,17.16
2018-08-28T02:26:41.954Z,17.14
2018-08-28T02:27:41.968Z,17.15
2018-08-28T02:28:41.923Z,17.16
2018-08-28T02:29:41.859Z,17.16
2018-08-28T02:30:41.991Z,17.15
2018-08-28T02:31:41.924Z,17.15
2018-08-28T02:32:41.972Z,17.15
2018-08-28T02:33:42.197Z,17.08
2018-08-28T02:34:41.884Z,17.11
2018-08-28T02:35:41.868Z,17.07
2018-08-28T02:36:41.839Z,17.02
2018-08-28T02:37:41.869Z,17.02
2018-08-28T02:38:41.881Z,16.99
2018-08-28T02:39:41.859Z,16.97
2018-08-28T02:40:41.894Z,16.97
2018-08-28T02:41:41.940Z,16.94
2018-08-28T02:42:41.962Z,16.94
2018-08-28T02:43:41.905Z,16.97
2018-08-28T02:44:41.931Z,16.92
2018-08-28T02:45:41.940Z,16.92
2018-08-28T02:46:41.883Z,16.9
2018-08-28T02:47:41.871Z,16.9
2018-08-28T02:48:41.922Z,16.88
2018-08-28T02:49:41.931Z,16.84
2018-08-28T02:50:41.876Z,16.86
2018-08-28T02:51:41.878Z,16.84
2018-08-28T02:52:41.908Z,16.84
2018-08-28T02:53:41.867Z,16.87
2018-08-28T02:54:41.911Z,16.84
2018-08-28T02:55:41.947Z,16.84
2018-08-28T02:56:42.008Z,16.83
2018-08-28T02:57:41.992Z,16.8
2018-08-28T02:58:42.007Z,16.8
2018-08-28T02:59:42.001Z,16.77
2018-08-28T03:00:41.887Z,16.78
2018-08-28T03:01:42.079Z,16.77
2018-08-28T03:02:42.039Z,16.75
2018-08-28T03:03:42.053Z,16.73
2018-08-28T03:04:41.970Z,16.73
2018-08-28T03:05:41.949Z,16.7
2018-08-28T03:06:41.945Z,16.7
2018-08-28T03:07:42.136Z,16.7
2018-08-28T03:08:41.943Z,16.67
2018-08-28T03:09:42.069Z,16.66
2018-08-28T03:10:41.997Z,16.63
2018-08-28T03:11:42.425Z,16.62
2018-08-28T03:12:41.922Z,16.6
2018-08-28T03:13:42.004Z,16.6
2018-08-28T03:14:42.011Z,16.59
2018-08-28T03:15:42.347Z,16.57
2018-08-28T03:16:42.128Z,16.54
2018-08-28T03:17:41.926Z,16.54
2018-08-28T03:18:42.107Z,16.53
2018-08-28T03:19:42.337Z,16.53
2018-08-28T03:20:42.224Z,16.52
2018-08-28T03:21:42.222Z,16.49
2018-08-28T03:22:42.105Z,16.5
2018-08-28T03:23:42.074Z,16.49
2018-08-28T03:24:42.105Z,16.49
2018-08-28T03:25:41.995Z,16.47
2018-08-28T03:26:42.183Z,16.47
2018-08-28T03:27:42.158Z,16.46
2018-08-28T03:28:42.011Z,16.43
2018-08-28T03:29:42.042Z,16.42
2018-08-28T03:30:42.019Z,16.43
2018-08-28T03:31:41.941Z,16.4
2018-08-28T03:32:41.984Z,16.37
2018-08-28T03:33:41.998Z,16.37
2018-08-28T03:34:42.005Z,16.36
2018-08-28T03:35:41.962Z,16.36
2018-08-28T03:36:42.021Z,16.33
2018-08-28T03:37:41.939Z,16.32
2018-08-28T03:38:42.019Z,16.31
2018-08-28T03:39:41.980Z,16.24
2018-08-28T03:40:42.002Z,16.21
2018-08-28T03:41:42.016Z,16.18
2018-08-28T03:42:42.096Z,16.15
2018-08-28T03:43:41.992Z,16.05
2018-08-28T03:44:42.440Z,16.02
2018-08-28T03:45:42.042Z,15.91
2018-08-28T03:46:42.255Z,15.71
2018-08-28T03:47:41.998Z,15.69
2018-08-28T03:48:42.004Z,15.7
2018-08-28T03:49:41.987Z,15.71
2018-08-28T03:50:41.947Z,15.74
2018-08-28T03:51:42.092Z,15.67
2018-08-28T03:52:42.047Z,15.67
2018-08-28T03:53:42.219Z,15.64
2018-08-28T03:54:42.066Z,15.63
2018-08-28T03:55:42.014Z,15.6
2018-08-28T03:56:42.054Z,15.62
2018-08-28T03:57:42.128Z,15.63
2018-08-28T03:58:41.967Z,15.6
2018-08-28T03:59:42.049Z,15.62
2018-08-28T04:00:41.959Z,15.62
2018-08-28T04:01:41.948Z,15.64
2018-08-28T04:02:41.945Z,15.64
2018-08-28T04:03:42.185Z,15.67
2018-08-28T04:04:41.940Z,15.66
2018-08-28T04:05:41.949Z,15.71
2018-08-28T04:06:41.978Z,15.69
2018-08-28T04:07:41.960Z,15.7
2018-08-28T04:08:41.974Z,15.7
2018-08-28T04:09:42.025Z,15.69
2018-08-28T04:10:41.949Z,15.66
2018-08-28T04:11:41.948Z,15.59
2018-08-28T04:12:41.976Z,15.6
2018-08-28T04:13:42.084Z,15.63
2018-08-28T04:14:42.168Z,15.63
2018-08-28T04:15:42.489Z,15.62
2018-08-28T04:16:41.982Z,15.64
2018-08-28T04:17:41.974Z,15.64
2018-08-28T04:18:41.966Z,15.63
2018-08-28T04:19:42.101Z,15.64
2018-08-28T04:20:42.397Z,15.63
2018-08-28T04:21:42.346Z,15.63
2018-08-28T04:22:42.679Z,15.6
2018-08-28T04:23:42.182Z,15.6
2018-08-28T04:24:41.975Z,15.6
2018-08-28T04:25:42.631Z,15.6
2018-08-28T04:26:42.058Z,15.59
2018-08-28T04:27:41.978Z,15.59
2018-08-28T04:28:42.038Z,15.6
2018-08-28T04:29:42.189Z,15.59
2018-08-28T04:30:42.165Z,15.6
2018-08-28T04:31:41.982Z,15.57
2018-08-28T04:32:42.052Z,15.56
2018-08-28T04:33:41.993Z,15.59
2018-08-28T04:34:41.999Z,15.57
2018-08-28T04:35:42.808Z,15.59
2018-08-28T04:36:42.027Z,15.56
2018-08-28T04:37:42.047Z,15.57
2018-08-28T04:38:42.017Z,15.59
2018-08-28T04:39:42.070Z,15.57
2018-08-28T04:40:42.068Z,15.53
2018-08-28T04:41:42.103Z,15.53
2018-08-28T04:42:42.039Z,15.5
2018-08-28T04:43:42.213Z,15.54
2018-08-28T04:44:42.011Z,15.53
2018-08-28T04:45:42.183Z,15.52
2018-08-28T04:46:42.060Z,15.53
2018-08-28T04:47:42.062Z,15.53
2018-08-28T04:48:42.186Z,15.52
2018-08-28T04:49:42.050Z,15.5
2018-08-28T04:50:42.002Z,15.5
2018-08-28T04:51:42.015Z,15.47
2018-08-28T04:52:42.043Z,15.53
2018-08-28T04:53:42.101Z,15.49
2018-08-28T04:54:42.156Z,15.47
2018-08-28T04:55:42.039Z,15.49
2018-08-28T04:56:42.063Z,15.49
2018-08-28T04:57:42.135Z,15.47
2018-08-28T04:58:42.170Z,15.47
2018-08-28T04:59:42.211Z,15.47
2018-08-28T05:00:42.290Z,15.5
2018-08-28T05:01:42.048Z,15.5
2018-08-28T05:02:42.027Z,15.5
2018-08-28T05:03:42.335Z,15.47
2018-08-28T05:04:42.206Z,15.49
2018-08-28T05:05:42.126Z,15.47
2018-08-28T05:06:42.211Z,15.47
2018-08-28T05:07:42.132Z,15.47
2018-08-28T05:08:42.056Z,15.45
2018-08-28T05:09:42.245Z,15.46
2018-08-28T05:10:42.109Z,15.5
2018-08-28T05:11:42.235Z,15.5
2018-08-28T05:12:42.088Z,15.47
2018-08-28T05:13:42.144Z,15.47
2018-08-28T05:14:42.205Z,15.49
2018-08-28T05:15:42.188Z,15.47
2018-08-28T05:16:42.064Z,15.47
2018-08-28T05:17:42.037Z,15.46
2018-08-28T05:18:42.173Z,15.47
2018-08-28T05:19:42.066Z,15.46
2018-08-28T05:20:42.063Z,15.47
2018-08-28T05:21:42.059Z,15.47
2018-08-28T05:22:42.058Z,15.52
2018-08-28T05:23:42.036Z,15.52
2018-08-28T05:24:42.029Z,15.53
2018-08-28T05:25:42.067Z,15.53
2018-08-28T05:26:42.277Z,15.54
2018-08-28T05:27:42.091Z,15.52
2018-08-28T05:28:42.069Z,15.46
2018-08-28T05:29:42.672Z,15.43
2018-08-28T05:30:42.168Z,15.42
2018-08-28T05:31:42.032Z,15.43
2018-08-28T05:32:42.098Z,15.43
2018-08-28T05:33:42.076Z,15.45
2018-08-28T05:34:42.092Z,15.46
2018-08-28T05:35:42.080Z,15.49
2018-08-28T05:36:42.191Z,15.47
2018-08-28T05:37:42.227Z,15.5
2018-08-28T05:38:42.124Z,15.54
2018-08-28T05:39:42.253Z,15.53
2018-08-28T05:40:42.084Z,15.56
2018-08-28T05:41:42.198Z,15.57
2018-08-28T05:42:42.154Z,15.6
2018-08-28T05:43:42.415Z,15.63
2018-08-28T05:44:42.245Z,15.64
2018-08-28T05:45:42.245Z,15.67
2018-08-28T05:46:42.142Z,15.7
2018-08-28T05:47:42.064Z,15.73
2018-08-28T05:48:42.205Z,15.74
2018-08-28T05:49:42.511Z,15.77
2018-08-28T05:50:42.140Z,15.78
2018-08-28T05:51:42.058Z,15.82
2018-08-28T05:52:42.233Z,15.84
2018-08-28T05:53:42.249Z,15.87
2018-08-28T05:54:42.287Z,15.88
2018-08-28T05:55:42.425Z,15.9
2018-08-28T05:56:42.084Z,15.91
2018-08-28T05:57:42.100Z,15.9
2018-08-28T05:58:42.522Z,15.95
2018-08-28T05:59:42.247Z,15.99
2018-08-28T06:00:42.201Z,16.02
2018-08-28T06:01:42.148Z,16.02
2018-08-28T06:02:42.251Z,16.07
2018-08-28T06:03:42.738Z,16.08
2018-08-28T06:04:42.096Z,16.09
2018-08-28T06:05:42.103Z,16.15
2018-08-28T06:06:42.351Z,16.16
2018-08-28T06:07:42.078Z,16.16
2018-08-28T06:08:42.658Z,16.19
2018-08-28T06:09:42.113Z,16.21
2018-08-28T06:10:42.157Z,16.24
2018-08-28T06:11:42.251Z,16.26
2018-08-28T06:12:42.207Z,16.28
2018-08-28T06:13:42.196Z,16.32
2018-08-28T06:14:42.951Z,16.36
2018-08-28T06:15:42.291Z,16.36
2018-08-28T06:16:42.141Z,16.39
2018-08-28T06:17:42.283Z,16.37
2018-08-28T06:18:42.156Z,16.42
2018-08-28T06:19:42.233Z,16.42
2018-08-28T06:20:42.111Z,16.46
2018-08-28T06:21:42.962Z,16.47
2018-08-28T06:22:42.235Z,16.52
2018-08-28T06:23:42.322Z,16.5
2018-08-28T06:24:42.175Z,16.52
2018-08-28T06:25:42.153Z,16.52
2018-08-28T06:26:42.161Z,16.56
2018-08-28T06:27:42.165Z,16.56
2018-08-28T06:28:42.175Z,16.52
2018-08-28T06:29:42.130Z,16.47
2018-08-28T06:30:42.114Z,16.47
2018-08-28T06:31:42.121Z,16.5
2018-08-28T06:32:42.142Z,16.53
2018-08-28T06:33:42.165Z,16.54
2018-08-28T06:34:42.238Z,16.56
2018-08-28T06:35:42.164Z,16.59
2018-08-28T06:36:42.161Z,16.59
2018-08-28T06:37:42.326Z,16.6
2018-08-28T06:38:42.217Z,16.63
2018-08-28T06:39:42.484Z,16.62
2018-08-28T06:40:42.198Z,16.62
2018-08-28T06:41:42.142Z,16.57
2018-08-28T06:42:42.232Z,16.57
2018-08-28T06:43:42.307Z,16.62
2018-08-28T06:44:42.131Z,16.6
2018-08-28T06:45:42.180Z,16.66
2018-08-28T06:46:42.143Z,16.67
2018-08-28T06:47:42.570Z,16.73
2018-08-28T06:48:42.178Z,16.71
2018-08-28T06:49:42.674Z,16.67
2018-08-28T06:50:42.220Z,16.63
2018-08-28T06:51:42.249Z,16.71
2018-08-28T06:52:42.212Z,16.74
2018-08-28T06:53:42.247Z,16.74
2018-08-28T06:54:42.323Z,16.73
2018-08-28T06:55:42.143Z,16.71
2018-08-28T06:56:42.544Z,16.73
2018-08-28T06:57:42.199Z,16.75
2018-08-28T06:58:42.172Z,16.77
2018-08-28T06:59:42.209Z,16.81
2018-08-28T07:00:42.171Z,16.88
2018-08-28T07:01:42.180Z,16.88
2018-08-28T07:02:42.244Z,16.86
2018-08-28T07:03:42.257Z,16.86
2018-08-28T07:04:42.186Z,16.83
2018-08-28T07:05:42.205Z,16.86
2018-08-28T07:06:42.342Z,16.88
2018-08-28T07:07:42.321Z,16.95
2018-08-28T07:08:42.213Z,16.99
2018-08-28T07:09:42.310Z,17.07
2018-08-28T07:10:42.243Z,17.09
2018-08-28T07:11:43.179Z,17.12
2018-08-28T07:12:42.192Z,17.14
2018-08-28T07:13:42.155Z,17.16
2018-08-28T07:14:42.263Z,17.21
2018-08-28T07:15:42.349Z,17.26
2018-08-28T07:16:42.159Z,17.26
2018-08-28T07:17:42.226Z,17.32
2018-08-28T07:18:42.440Z,17.3
2018-08-28T07:19:42.229Z,17.35
2018-08-28T07:20:42.185Z,17.4
2018-08-28T07:21:42.292Z,17.43
2018-08-28T07:22:42.294Z,17.47
2018-08-28T07:23:42.206Z,17.44
2018-08-28T07:24:42.296Z,17.43
2018-08-28T07:25:43.152Z,17.43
2018-08-28T07:26:42.246Z,17.42
2018-08-28T07:27:42.329Z,17.43
2018-08-28T07:28:42.358Z,17.43
2018-08-28T07:29:42.224Z,17.42
2018-08-28T07:30:42.464Z,17.44
2018-08-28T07:31:42.378Z,17.5
2018-08-28T07:32:42.194Z,17.56
2018-08-28T07:33:42.210Z,17.61
2018-08-28T07:34:42.197Z,17.69
2018-08-28T07:35:42.266Z,17.7
2018-08-28T07:36:42.216Z,17.77
2018-08-28T07:37:42.241Z,17.78
2018-08-28T07:38:42.347Z,17.82
2018-08-28T07:39:42.381Z,17.78
2018-08-28T07:40:42.759Z,17.76
2018-08-28T07:41:42.272Z,17.69
2018-08-28T07:42:42.462Z,17.7
2018-08-28T07:43:42.333Z,17.74
2018-08-28T07:44:42.243Z,17.78
2018-08-28T07:45:42.506Z,17.82
2018-08-28T07:46:42.651Z,17.84
2018-08-28T07:47:42.295Z,17.82
2018-08-28T07:48:42.203Z,17.8
2018-08-28T07:49:42.758Z,17.88
2018-08-28T07:50:42.279Z,17.92
2018-08-28T07:51:42.224Z,17.94
2018-08-28T07:52:42.445Z,17.97
2018-08-28T07:53:42.368Z,18.01
2018-08-28T07:54:42.204Z,18.05
2018-08-28T07:55:42.293Z,18.11
2018-08-28T07:56:42.290Z,18.16
2018-08-28T07:57:42.609Z,18.22
2018-08-28T07:58:42.213Z,18.23
2018-08-28T07:59:42.228Z,18.32
2018-08-28T08:00:42.218Z,18.3
2018-08-28T08:01:42.288Z,18.35
2018-08-28T08:02:42.261Z,18.33
2018-08-28T08:03:42.339Z,18.26
2018-08-28T08:04:42.350Z,18.27
2018-08-28T08:05:42.216Z,18.3
2018-08-28T08:06:42.267Z,18.29
2018-08-28T08:07:42.347Z,18.27
2018-08-28T08:08:42.230Z,18.32
2018-08-28T08:09:42.263Z,18.3
2018-08-28T08:10:42.231Z,18.39
2018-08-28T08:11:42.413Z,18.42
2018-08-28T08:12:42.933Z,18.49
2018-08-28T08:13:42.364Z,18.57
2018-08-28T08:14:42.280Z,18.54
2018-08-28T08:15:42.741Z,18.54
2018-08-28T08:16:42.289Z,18.6
2018-08-28T08:17:42.284Z,18.67
2018-08-28T08:18:42.441Z,18.7
2018-08-28T08:19:42.261Z,18.72
2018-08-28T08:20:42.402Z,18.75
2018-08-28T08:21:42.582Z,18.74
2018-08-28T08:22:42.245Z,18.81
2018-08-28T08:23:42.328Z,18.85
2018-08-28T08:24:42.899Z,18.88
2018-08-28T08:25:42.244Z,18.94
2018-08-28T08:26:42.311Z,18.98
2018-08-28T08:27:42.473Z,19.01
2018-08-28T08:28:42.328Z,19.01
2018-08-28T08:29:42.426Z,19.08
2018-08-28T08:30:42.291Z,19.13
2018-08-28T08:31:42.402Z,19.19
2018-08-28T08:32:42.409Z,19.23
2018-08-28T08:33:42.427Z,19.29
2018-08-28T08:34:42.298Z,19.3
2018-08-28T08:35:42.261Z,19.32
2018-08-28T08:36:42.528Z,19.33
2018-08-28T08:37:42.394Z,19.34
2018-08-28T08:38:42.273Z,19.36
2018-08-28T08:39:42.297Z,19.33
2018-08-28T08:40:42.536Z,19.36
2018-08-28T08:41:42.294Z,19.42
2018-08-28T08:42:42.287Z,19.42
2018-08-28T08:43:42.276Z,19.44
2018-08-28T08:44:42.323Z,19.47
2018-08-28T08:45:42.278Z,19.53
2018-08-28T08:46:42.439Z,19.58
2018-08-28T08:47:42.362Z,19.64
2018-08-28T08:48:42.317Z,19.67
2018-08-28T08:49:42.273Z,19.68
2018-08-28T08:50:42.435Z,19.7
2018-08-28T08:51:42.395Z,19.72
2018-08-28T08:52:42.363Z,19.78
2018-08-28T08:53:42.692Z,19.84
2018-08-28T08:54:42.645Z,19.81
2018-08-28T08:55:42.290Z,19.84
2018-08-28T08:56:42.297Z,19.84
2018-08-28T08:57:42.328Z,19.88
2018-08-28T08:58:42.468Z,19.92
2018-08-28T08:59:42.530Z,19.96
2018-08-28T09:00:42.278Z,19.99
2018-08-28T09:01:42.425Z,20.05
2018-08-28T09:02:42.515Z,20.11
2018-08-28T09:03:42.315Z,20.13
2018-08-28T09:04:42.369Z,20.16
2018-08-28T09:05:42.298Z,20.16
2018-08-28T09:06:42.446Z,20.12
2018-08-28T09:07:42.419Z,20.13
2018-08-28T09:08:42.338Z,20.13
2018-08-28T09:09:42.366Z,20.13
2018-08-28T09:10:42.399Z,20.13
2018-08-28T09:11:42.342Z,20.19
2018-08-28T09:12:42.341Z,20.2
2018-08-28T09:13:42.299Z,20.26
2018-08-28T09:14:42.320Z,20.32
2018-08-28T09:15:42.327Z,20.36
2018-08-28T09:16:42.342Z,20.36
2018-08-28T09:17:42.293Z,20.4
2018-08-28T09:18:42.290Z,20.4
2018-08-28T09:19:42.439Z,20.37
2018-08-28T09:20:42.336Z,20.32
2018-08-28T09:21:42.311Z,20.33
2018-08-28T09:22:42.400Z,20.37
2018-08-28T09:23:42.307Z,20.4
2018-08-28T09:24:42.473Z,20.47
2018-08-28T09:25:42.342Z,20.52
2018-08-28T09:26:42.352Z,20.58
2018-08-28T09:27:42.444Z,20.64
2018-08-28T09:28:42.360Z,20.65
2018-08-28T09:29:42.349Z,20.71
2018-08-28T09:30:42.930Z,20.74
2018-08-28T09:31:42.644Z,20.78
2018-08-28T09:32:42.362Z,20.85
2018-08-28T09:33:42.600Z,20.89
2018-08-28T09:34:42.476Z,20.91
2018-08-28T09:35:42.364Z,20.75
2018-08-28T09:36:42.431Z,20.72
2018-08-28T09:37:44.256Z,20.72
2018-08-28T09:38:42.656Z,20.77
2018-08-28T09:39:42.810Z,20.78
2018-08-28T09:40:42.330Z,20.82
2018-08-28T09:41:42.350Z,20.94
2018-08-28T09:42:42.758Z,20.98
2018-08-28T09:43:42.746Z,21.07
2018-08-28T09:44:42.393Z,21.13
2018-08-28T09:45:42.515Z,21.12
2018-08-28T09:46:42.755Z,21.06
2018-08-28T09:47:42.376Z,21.07
2018-08-28T09:48:42.347Z,21.05
2018-08-28T09:49:42.667Z,20.94
2018-08-28T09:50:42.742Z,20.85
2018-08-28T09:51:43.088Z,20.77
2018-08-28T09:52:42.386Z,20.62
2018-08-28T09:53:42.439Z,20.71
2018-08-28T09:54:42.392Z,20.72
2018-08-28T09:55:42.532Z,20.82
2018-08-28T09:56:43.220Z,20.91
2018-08-28T09:57:42.377Z,20.95
2018-08-28T09:58:42.428Z,21.05
2018-08-28T09:59:42.373Z,21.12
2018-08-28T10:00:42.391Z,21.17
2018-08-28T10:01:42.715Z,21.23
2018-08-28T10:02:42.493Z,21.34
2018-08-28T10:03:42.507Z,21.41
2018-08-28T10:04:42.493Z,21.43
2018-08-28T10:05:42.464Z,21.51
2018-08-28T10:06:42.508Z,21.57
2018-08-28T10:07:42.495Z,21.62
2018-08-28T10:08:42.368Z,21.67
2018-08-28T10:09:42.920Z,21.71
2018-08-28T10:10:42.610Z,21.65
2018-08-28T10:11:42.508Z,21.65
2018-08-28T10:12:42.413Z,21.69
2018-08-28T10:13:42.384Z,21.72
2018-08-28T10:14:42.391Z,21.77
2018-08-28T10:15:42.600Z,21.78
2018-08-28T10:16:42.361Z,21.85
2018-08-28T10:17:42.396Z,21.79
2018-08-28T10:18:42.556Z,21.62
2018-08-28T10:19:42.409Z,21.62
2018-08-28T10:20:42.517Z,21.6
2018-08-28T10:21:42.435Z,21.61
2018-08-28T10:22:42.691Z,21.62
2018-08-28T10:23:42.438Z,21.61
2018-08-28T10:24:42.535Z,21.65
2018-08-28T10:25:42.468Z,21.75
2018-08-28T10:26:42.420Z,21.74
2018-08-28T10:27:42.721Z,21.71
2018-08-28T10:28:42.386Z,21.64
2018-08-28T10:29:42.687Z,21.71
2018-08-28T10:30:42.651Z,21.69
2018-08-28T10:31:42.416Z,21.69
2018-08-28T10:32:42.492Z,21.67
2018-08-28T10:33:42.443Z,21.56
2018-08-28T10:34:42.472Z,21.67
2018-08-28T10:35:42.408Z,21.74
2018-08-28T10:36:42.683Z,21.77
2018-08-28T10:37:42.425Z,21.86
2018-08-28T10:38:42.477Z,21.96
2018-08-28T10:39:42.430Z,21.95
2018-08-28T10:40:42.503Z,21.92
2018-08-28T10:41:42.418Z,21.94
2018-08-28T10:42:42.418Z,22.02
2018-08-28T10:43:42.553Z,22.06
2018-08-28T10:44:42.558Z,22.08
2018-08-28T10:45:42.441Z,22.06
2018-08-28T10:46:43.374Z,22.03
2018-08-28T10:47:42.595Z,22.08
2018-08-28T10:48:42.410Z,22.17
2018-08-28T10:49:42.623Z,22.17
2018-08-28T10:50:42.466Z,22.22
2018-08-28T10:51:42.477Z,22.29
2018-08-28T10:52:42.660Z,22.36
2018-08-28T10:53:42.564Z,22.31
2018-08-28T10:54:42.511Z,22.15
2018-08-28T10:55:42.485Z,22.12
2018-08-28T10:56:42.740Z,22.16
2018-08-28T10:57:44.680Z,22.24
2018-08-28T10:58:42.813Z,22.27
2018-08-28T10:59:42.536Z,22.29
2018-08-28T11:00:42.422Z,22.29
2018-08-28T11:01:42.862Z,22.36
2018-08-28T11:02:42.553Z,22.46
2018-08-28T11:03:42.569Z,22.56
2018-08-28T11:04:43.026Z,22.64
2018-08-28T11:05:42.462Z,22.76
2018-08-28T11:06:42.452Z,22.82
2018-08-28T11:07:42.509Z,22.85
2018-08-28T11:08:42.827Z,22.84
2018-08-28T11:09:42.642Z,22.79
2018-08-28T11:10:42.600Z,22.81
2018-08-28T11:11:42.447Z,22.75
2018-08-28T11:12:42.605Z,22.84
2018-08-28T11:13:42.542Z,22.81
2018-08-28T11:14:42.442Z,22.75
2018-08-28T11:15:42.772Z,22.79
2018-08-28T11:16:43.190Z,22.82
2018-08-28T11:17:42.492Z,22.85
2018-08-28T11:18:42.648Z,22.95
2018-08-28T11:19:42.697Z,23.01
2018-08-28T11:20:42.477Z,23.03
2018-08-28T11:21:42.465Z,23.05
2018-08-28T11:22:42.568Z,23.11
2018-08-28T11:23:42.530Z,23.16
2018-08-28T11:24:42.499Z,23.3
2018-08-28T11:25:42.627Z,23.32
2018-08-28T11:26:42.481Z,23.34
2018-08-28T11:27:42.949Z,23.41
2018-08-28T11:28:42.649Z,23.43
2018-08-28T11:29:42.496Z,23.48
2018-08-28T11:30:42.483Z,23.54
2018-08-28T11:31:42.520Z,23.6
2018-08-28T11:32:42.583Z,23.65
2018-08-28T11:33:42.698Z,23.69
2018-08-28T11:34:42.678Z,23.75
2018-08-28T11:35:44.055Z,23.75
2018-08-28T11:36:42.613Z,23.69
2018-08-28T11:37:42.815Z,23.68
2018-08-28T11:38:42.672Z,23.67
2018-08-28T11:39:42.613Z,23.71
2018-08-28T11:40:42.542Z,23.71
2018-08-28T11:41:42.855Z,23.64
2018-08-28T11:42:42.737Z,23.37
2018-08-28T11:43:42.514Z,23.27
2018-08-28T11:44:42.508Z,23.23
2018-08-28T11:45:42.633Z,23.15
2018-08-28T11:46:42.525Z,23.07
2018-08-28T11:47:42.526Z,23.11
2018-08-28T11:48:42.593Z,22.96
2018-08-28T11:49:42.583Z,23.07
2018-08-28T11:50:42.690Z,23.16
2018-08-28T11:51:42.540Z,23.22
2018-08-28T11:52:42.973Z,23.2
2018-08-28T11:53:42.495Z,23.25
2018-08-28T11:54:42.520Z,23.29
2018-08-28T11:55:42.580Z,23.29
2018-08-28T11:56:42.534Z,23.32
2018-08-28T11:57:42.508Z,23.36
2018-08-28T11:58:42.531Z,23.41
2018-08-28T11:59:42.635Z,23.36
2018-08-28T12:00:42.528Z,23.43
2018-08-28T12:01:42.563Z,23.5
2018-08-28T12:02:42.545Z,23.61
2018-08-28T12:03:42.532Z,23.84
2018-08-28T12:04:42.783Z,23.91
2018-08-28T12:05:42.520Z,23.84
2018-08-28T12:06:42.738Z,23.87
2018-08-28T12:07:42.752Z,23.82
2018-08-28T12:08:42.518Z,23.77
2018-08-28T12:09:42.529Z,23.88
2018-08-28T12:10:42.529Z,23.91
2018-08-28T12:11:42.586Z,23.96
2018-08-28T12:12:44.317Z,23.95
2018-08-28T12:13:42.590Z,23.96
2018-08-28T12:14:42.599Z,24.01
2018-08-28T12:15:42.873Z,23.98
2018-08-28T12:16:42.675Z,24.02
2018-08-28T12:17:42.591Z,24.09
2018-08-28T12:18:43.038Z,24.16
2018-08-28T12:19:42.700Z,24.17
2018-08-28T12:20:42.790Z,24.16
2018-08-28T12:21:43.317Z,24.21
2018-08-28T12:22:42.593Z,24.29
2018-08-28T12:23:42.543Z,24.35
2018-08-28T12:24:42.719Z,24.39
2018-08-28T12:25:42.563Z,24.42
2018-08-28T12:26:43.200Z,24.44
2018-08-28T12:27:42.724Z,24.39
2018-08-28T12:28:42.608Z,24.4
2018-08-28T12:29:42.896Z,24.44
2018-08-28T12:30:42.618Z,24.37
2018-08-28T12:31:42.920Z,24.43
2018-08-28T12:32:42.652Z,24.39
2018-08-28T12:33:42.643Z,24.46
2018-08-28T12:34:43.839Z,24.48
2018-08-28T12:35:42.914Z,24.57
2018-08-28T12:36:42.919Z,24.6
2018-08-28T12:37:42.548Z,24.63
2018-08-28T12:38:42.583Z,24.7
2018-08-28T12:39:42.581Z,24.75
2018-08-28T12:40:42.601Z,24.83
2018-08-28T12:41:42.754Z,24.91
2018-08-28T12:42:42.840Z,24.91
2018-08-28T12:43:42.651Z,24.92
2018-08-28T12:44:42.678Z,24.91
2018-08-28T12:45:42.611Z,24.95
2018-08-28T12:46:42.700Z,25.02
2018-08-28T12:47:42.594Z,25.01
2018-08-28T12:48:42.607Z,25.05
2018-08-28T12:49:42.914Z,25.1
2018-08-28T12:50:44.311Z,25.13
2018-08-28T12:51:42.630Z,25.1
2018-08-28T12:52:42.611Z,25.01
2018-08-28T12:53:42.625Z,25.06
2018-08-28T12:54:42.761Z,25.1
2018-08-28T12:55:42.647Z,25.15